Moscow, ID (83843)

6:14 AM PDT on April 25, 2017 (GMT -0700)
Fort Russell | | Change Station

Elev 2680 ft 46.74 °N, 116.99 °W | Updated 5 seconds ago

Overcast
Overcast
41.0 °F
Feels Like 41 °F
N
0.0
Wind Variable Wind from WNW
Gusts 0.0 mph

Today
High -- | Low -- °F
--% Chance of Precip.
Yesterday
High -- | Low -- °F
Precip. -- in
Pressure 29.90 in
Visibility 10.0 miles
Clouds Scattered Clouds 4300 ft
Overcast 8000 ft
Windchill 41 °F
Dew Point 40 °F
Humidity 98%
Rainfall 0.00 in
Snow Depth Not available.
5:42 AM 7:50 PM
Waning Crescent, 1% visible
METAR KPUW 251253Z AUTO 25009KT 10SM SCT043 OVC080 05/03 A2988 RMK AO2 SLP124 T00500033
Pressure 29.90 in
Visibility 10.0 miles
Clouds Scattered Clouds 4300 ft
Overcast 8000 ft
Windchill 41 °F
Dew Point 40 °F
Humidity 98%
Rainfall 0.00 in
Snow Depth Not available.
5:42 AM 7:50 PM
Waning Crescent, 1% visible
METAR KPUW 251253Z AUTO 25009KT 10SM SCT043 OVC080 05/03 A2988 RMK AO2 SLP124 T00500033

Get Severe Weather Alerts

Thanks for signing up!

Be on the lookout for a verification email in your inbox.

You'll start receiving the daily forecast at 8 AM.

×

10-Day Weather Forecast

Almanac

Astronomy

Apr. 25, 2017 Rise Set
Actual Time
Civil Twilight
Nautical Twilight
Astronomical Twilight
Moon
Length of Visible Light
Length of Day
Tomorrow will be .
, % of the Moon is Illuminated

Today's Extremes

State Highs State Lows

Community

WunderPhotos

WunderBlog® & News

Nearby

Air Quality

  Air Quality AQ Index Pollutant
Not available.

Snow Depth

Station Depth Elevation

Earthquake Activity

City Distance Mag. Time & Date
Minimum magnitude displayed is 2.5.

Coastal Water Temperatures

Place Temperature

Stations

Nearby Weather Stations

Station Location Temp. Windchill Dew Point Humidity Wind Precip. Elev Updated Type
                   

Watches & Warnings

There are currently no watches in effect.